sensor_id;sensor_type;location;lat;lon;timestamp;P1;durP1;ratioP1;P2;durP2;ratioP2
37451;SDS011;23314;51.114;6.900;2023-03-14T00:01:56;7.30;;;2.43;;
37451;SDS011;23314;51.114;6.900;2023-03-14T00:04:22;5.53;;;2.00;;
37451;SDS011;23314;51.114;6.900;2023-03-14T00:06:47;3.73;;;1.90;;
37451;SDS011;23314;51.114;6.900;2023-03-14T00:09:14;7.37;;;1.97;;
37451;SDS011;23314;51.114;6.900;2023-03-14T00:11:40;5.67;;;1.90;;
37451;SDS011;23314;51.114;6.900;2023-03-14T00:14:05;5.40;;;1.90;;
37451;SDS011;23314;51.114;6.900;2023-03-14T00:16:31;5.70;;;2.30;;
37451;SDS011;23314;51.114;6.900;2023-03-14T00:18:57;5.03;;;2.27;;
37451;SDS011;23314;51.114;6.900;2023-03-14T00:21:24;4.03;;;2.37;;
37451;SDS011;23314;51.114;6.900;2023-03-14T00:23:49;6.53;;;3.50;;
37451;SDS011;23314;51.114;6.900;2023-03-14T00:26:16;7.00;;;2.23;;
37451;SDS011;23314;51.114;6.900;2023-03-14T00:28:44;5.47;;;2.50;;
37451;SDS011;23314;51.114;6.900;2023-03-14T00:31:12;3.43;;;2.23;;
37451;SDS011;23314;51.114;6.900;2023-03-14T00:33:41;5.70;;;2.03;;
37451;SDS011;23314;51.114;6.900;2023-03-14T00:36:09;8.63;;;2.13;;
37451;SDS011;23314;51.114;6.900;2023-03-14T00:38:36;5.10;;;1.80;;
37451;SDS011;23314;51.114;6.900;2023-03-14T00:41:03;5.13;;;1.97;;
37451;SDS011;23314;51.114;6.900;2023-03-14T00:43:29;7.43;;;2.07;;
37451;SDS011;23314;51.114;6.900;2023-03-14T00:45:55;7.00;;;2.40;;
37451;SDS011;23314;51.114;6.900;2023-03-14T00:48:20;6.90;;;2.00;;
37451;SDS011;23314;51.114;6.900;2023-03-14T00:50:46;6.60;;;2.07;;
37451;SDS011;23314;51.114;6.900;2023-03-14T00:53:12;7.53;;;2.20;;
37451;SDS011;23314;51.114;6.900;2023-03-14T00:55:38;3.17;;;1.07;;
37451;SDS011;23314;51.114;6.900;2023-03-14T00:58:04;4.83;;;1.10;;
37451;SDS011;23314;51.114;6.900;2023-03-14T01:00:30;1.10;;;1.00;;
37451;SDS011;23314;51.114;6.900;2023-03-14T01:02:55;5.57;;;1.10;;
37451;SDS011;23314;51.114;6.900;2023-03-14T01:05:21;3.57;;;1.07;;
37451;SDS011;23314;51.114;6.900;2023-03-14T01:07:47;4.20;;;1.20;;
37451;SDS011;23314;51.114;6.900;2023-03-14T01:10:12;7.10;;;1.60;;
37451;SDS011;23314;51.114;6.900;2023-03-14T01:12:38;4.57;;;1.30;;
37451;SDS011;23314;51.114;6.900;2023-03-14T01:15:03;7.97;;;1.57;;
37451;SDS011;23314;51.114;6.900;2023-03-14T01:17:29;4.47;;;1.50;;
37451;SDS011;23314;51.114;6.900;2023-03-14T01:19:54;4.97;;;1.30;;
37451;SDS011;23314;51.114;6.900;2023-03-14T01:22:19;7.03;;;2.03;;
37451;SDS011;23314;51.114;6.900;2023-03-14T01:24:46;5.53;;;1.53;;
37451;SDS011;23314;51.114;6.900;2023-03-14T01:27:12;8.13;;;1.67;;
37451;SDS011;23314;51.114;6.900;2023-03-14T01:29:37;7.20;;;1.90;;
37451;SDS011;23314;51.114;6.900;2023-03-14T01:32:03;8.10;;;2.30;;
37451;SDS011;23314;51.114;6.900;2023-03-14T01:34:28;9.17;;;2.63;;
37451;SDS011;23314;51.114;6.900;2023-03-14T01:36:53;6.73;;;2.00;;
37451;SDS011;23314;51.114;6.900;2023-03-14T01:39:19;6.53;;;2.20;;
37451;SDS011;23314;51.114;6.900;2023-03-14T01:41:44;6.93;;;1.80;;
37451;SDS011;23314;51.114;6.900;2023-03-14T01:44:12;9.17;;;2.00;;
37451;SDS011;23314;51.114;6.900;2023-03-14T01:46:39;4.60;;;2.07;;
37451;SDS011;23314;51.114;6.900;2023-03-14T01:49:10;8.53;;;2.43;;
37451;SDS011;23314;51.114;6.900;2023-03-14T01:52:13;5.60;;;1.80;;
37451;SDS011;23314;51.114;6.900;2023-03-14T01:54:44;8.13;;;1.90;;
37451;SDS011;23314;51.114;6.900;2023-03-14T01:59:54;7.17;;;2.17;;
37451;SDS011;23314;51.114;6.900;2023-03-14T02:02:23;3.63;;;1.60;;
37451;SDS011;23314;51.114;6.900;2023-03-14T02:04:51;4.70;;;1.50;;
37451;SDS011;23314;51.114;6.900;2023-03-14T02:10:16;6.27;;;1.33;;
37451;SDS011;23314;51.114;6.900;2023-03-14T02:12:45;5.63;;;1.37;;
37451;SDS011;23314;51.114;6.900;2023-03-14T02:15:12;7.00;;;1.33;;
37451;SDS011;23314;51.114;6.900;2023-03-14T02:17:37;4.03;;;1.77;;
37451;SDS011;23314;51.114;6.900;2023-03-14T02:20:07;4.23;;;1.57;;
37451;SDS011;23314;51.114;6.900;2023-03-14T02:22:42;5.10;;;1.60;;
37451;SDS011;23314;51.114;6.900;2023-03-14T02:27:51;5.20;;;1.50;;
37451;SDS011;23314;51.114;6.900;2023-03-14T02:30:19;5.17;;;1.50;;
37451;SDS011;23314;51.114;6.900;2023-03-14T02:32:56;2.90;;;1.00;;
37451;SDS011;23314;51.114;6.900;2023-03-14T02:35:29;2.93;;;1.03;;
37451;SDS011;23314;51.114;6.900;2023-03-14T02:40:43;4.23;;;1.20;;
37451;SDS011;23314;51.114;6.900;2023-03-14T02:43:10;4.70;;;1.27;;
37451;SDS011;23314;51.114;6.900;2023-03-14T02:45:39;4.27;;;1.30;;
37451;SDS011;23314;51.114;6.900;2023-03-14T02:48:20;5.07;;;1.40;;
37451;SDS011;23314;51.114;6.900;2023-03-14T02:50:50;4.20;;;1.53;;
37451;SDS011;23314;51.114;6.900;2023-03-14T02:53:18;6.53;;;1.20;;
37451;SDS011;23314;51.114;6.900;2023-03-14T02:55:48;3.17;;;1.50;;
37451;SDS011;23314;51.114;6.900;2023-03-14T02:58:13;4.67;;;1.40;;
37451;SDS011;23314;51.114;6.900;2023-03-14T03:00:39;7.07;;;1.70;;
37451;SDS011;23314;51.114;6.900;2023-03-14T03:03:04;6.67;;;2.33;;
37451;SDS011;23314;51.114;6.900;2023-03-14T03:05:30;5.50;;;1.40;;
37451;SDS011;23314;51.114;6.900;2023-03-14T03:07:56;5.53;;;1.27;;
37451;SDS011;23314;51.114;6.900;2023-03-14T03:10:22;5.93;;;1.30;;
37451;SDS011;23314;51.114;6.900;2023-03-14T03:12:47;4.07;;;1.00;;
37451;SDS011;23314;51.114;6.900;2023-03-14T03:15:12;2.83;;;1.40;;
37451;SDS011;23314;51.114;6.900;2023-03-14T03:17:38;4.27;;;1.20;;
37451;SDS011;23314;51.114;6.900;2023-03-14T03:20:03;3.80;;;1.33;;
37451;SDS011;23314;51.114;6.900;2023-03-14T03:22:30;4.37;;;1.47;;
37451;SDS011;23314;51.114;6.900;2023-03-14T03:24:55;4.60;;;1.73;;
37451;SDS011;23314;51.114;6.900;2023-03-14T03:27:20;2.80;;;1.60;;
37451;SDS011;23314;51.114;6.900;2023-03-14T03:29:46;5.97;;;1.53;;
37451;SDS011;23314;51.114;6.900;2023-03-14T03:32:12;1.97;;;1.30;;
37451;SDS011;23314;51.114;6.900;2023-03-14T03:35:03;6.73;;;2.27;;
37451;SDS011;23314;51.114;6.900;2023-03-14T03:37:48;2.00;;;1.17;;
37451;SDS011;23314;51.114;6.900;2023-03-14T03:40:33;7.40;;;1.70;;
37451;SDS011;23314;51.114;6.900;2023-03-14T03:42:59;3.77;;;1.33;;
37451;SDS011;23314;51.114;6.900;2023-03-14T03:45:25;5.53;;;1.80;;
37451;SDS011;23314;51.114;6.900;2023-03-14T03:47:51;3.40;;;1.30;;
37451;SDS011;23314;51.114;6.900;2023-03-14T03:50:16;5.40;;;1.63;;
37451;SDS011;23314;51.114;6.900;2023-03-14T03:53:07;5.50;;;1.63;;
37451;SDS011;23314;51.114;6.900;2023-03-14T03:55:57;6.17;;;1.50;;
37451;SDS011;23314;51.114;6.900;2023-03-14T03:58:47;4.37;;;1.60;;
37451;SDS011;23314;51.114;6.900;2023-03-14T04:01:12;4.43;;;1.67;;
37451;SDS011;23314;51.114;6.900;2023-03-14T04:03:37;5.00;;;1.77;;
37451;SDS011;23314;51.114;6.900;2023-03-14T04:06:10;8.90;;;2.53;;
37451;SDS011;23314;51.114;6.900;2023-03-14T04:08:59;2.00;;;1.77;;
37451;SDS011;23314;51.114;6.900;2023-03-14T04:11:50;5.50;;;1.73;;
37451;SDS011;23314;51.114;6.900;2023-03-14T04:14:34;8.20;;;2.20;;
37451;SDS011;23314;51.114;6.900;2023-03-14T04:17:22;6.90;;;2.23;;
37451;SDS011;23314;51.114;6.900;2023-03-14T04:20:13;7.23;;;2.27;;
37451;SDS011;23314;51.114;6.900;2023-03-14T04:22:40;7.20;;;2.50;;
37451;SDS011;23314;51.114;6.900;2023-03-14T04:25:06;8.93;;;2.37;;
37451;SDS011;23314;51.114;6.900;2023-03-14T04:27:31;6.67;;;2.93;;
37451;SDS011;23314;51.114;6.900;2023-03-14T04:29:57;6.40;;;2.40;;
37451;SDS011;23314;51.114;6.900;2023-03-14T04:32:22;7.63;;;2.40;;
37451;SDS011;23314;51.114;6.900;2023-03-14T04:35:13;2.93;;;1.70;;
37451;SDS011;23314;51.114;6.900;2023-03-14T04:37:42;7.23;;;2.37;;
37451;SDS011;23314;51.114;6.900;2023-03-14T04:40:08;9.00;;;2.17;;
37451;SDS011;23314;51.114;6.900;2023-03-14T04:42:36;9.30;;;2.30;;
37451;SDS011;23314;51.114;6.900;2023-03-14T04:45:01;3.63;;;1.70;;
37451;SDS011;23314;51.114;6.900;2023-03-14T04:47:27;8.97;;;2.07;;
37451;SDS011;23314;51.114;6.900;2023-03-14T04:49:53;6.80;;;2.20;;
37451;SDS011;23314;51.114;6.900;2023-03-14T04:52:18;4.70;;;1.80;;
37451;SDS011;23314;51.114;6.900;2023-03-14T04:54:43;7.03;;;1.67;;
37451;SDS011;23314;51.114;6.900;2023-03-14T04:57:09;5.00;;;1.90;;
37451;SDS011;23314;51.114;6.900;2023-03-14T04:59:34;6.53;;;1.80;;
37451;SDS011;23314;51.114;6.900;2023-03-14T05:01:59;8.13;;;1.90;;
37451;SDS011;23314;51.114;6.900;2023-03-14T05:04:25;5.20;;;1.30;;
37451;SDS011;23314;51.114;6.900;2023-03-14T05:06:50;4.03;;;1.20;;
37451;SDS011;23314;51.114;6.900;2023-03-14T05:09:15;6.20;;;1.77;;
37451;SDS011;23314;51.114;6.900;2023-03-14T05:11:41;4.40;;;1.40;;
37451;SDS011;23314;51.114;6.900;2023-03-14T05:14:06;6.33;;;1.93;;
37451;SDS011;23314;51.114;6.900;2023-03-14T05:16:31;6.03;;;1.90;;
37451;SDS011;23314;51.114;6.900;2023-03-14T05:18:57;2.60;;;1.20;;
37451;SDS011;23314;51.114;6.900;2023-03-14T05:21:22;3.87;;;1.10;;
37451;SDS011;23314;51.114;6.900;2023-03-14T05:23:47;2.37;;;1.20;;
37451;SDS011;23314;51.114;6.900;2023-03-14T05:26:13;3.27;;;1.27;;
37451;SDS011;23314;51.114;6.900;2023-03-14T05:28:38;2.87;;;1.00;;
37451;SDS011;23314;51.114;6.900;2023-03-14T05:31:07;2.70;;;1.00;;
37451;SDS011;23314;51.114;6.900;2023-03-14T05:33:33;3.87;;;1.20;;
37451;SDS011;23314;51.114;6.900;2023-03-14T05:35:58;1.30;;;0.87;;
37451;SDS011;23314;51.114;6.900;2023-03-14T05:38:23;2.83;;;1.10;;
37451;SDS011;23314;51.114;6.900;2023-03-14T05:40:49;2.70;;;1.00;;
37451;SDS011;23314;51.114;6.900;2023-03-14T05:43:14;4.13;;;1.33;;
37451;SDS011;23314;51.114;6.900;2023-03-14T05:45:41;1.47;;;1.00;;
37451;SDS011;23314;51.114;6.900;2023-03-14T05:48:07;2.80;;;1.43;;
37451;SDS011;23314;51.114;6.900;2023-03-14T05:50:32;0.87;;;0.80;;
37451;SDS011;23314;51.114;6.900;2023-03-14T05:52:57;0.80;;;0.80;;
37451;SDS011;23314;51.114;6.900;2023-03-14T05:55:23;0.83;;;0.70;;
37451;SDS011;23314;51.114;6.900;2023-03-14T05:57:48;1.20;;;0.87;;
37451;SDS011;23314;51.114;6.900;2023-03-14T06:00:14;1.20;;;1.10;;
37451;SDS011;23314;51.114;6.900;2023-03-14T06:02:39;1.30;;;0.60;;
37451;SDS011;23314;51.114;6.900;2023-03-14T06:05:04;1.27;;;0.60;;
37451;SDS011;23314;51.114;6.900;2023-03-14T06:07:30;0.97;;;0.47;;
37451;SDS011;23314;51.114;6.900;2023-03-14T06:09:55;1.97;;;0.80;;
37451;SDS011;23314;51.114;6.900;2023-03-14T06:12:21;1.03;;;0.53;;
37451;SDS011;23314;51.114;6.900;2023-03-14T06:14:46;2.10;;;0.87;;
37451;SDS011;23314;51.114;6.900;2023-03-14T06:17:11;0.57;;;0.57;;
37451;SDS011;23314;51.114;6.900;2023-03-14T06:19:37;1.17;;;0.83;;
37451;SDS011;23314;51.114;6.900;2023-03-14T06:22:02;0.70;;;0.60;;
37451;SDS011;23314;51.114;6.900;2023-03-14T06:24:27;1.73;;;0.73;;
37451;SDS011;23314;51.114;6.900;2023-03-14T06:26:54;0.40;;;0.40;;
37451;SDS011;23314;51.114;6.900;2023-03-14T06:29:19;1.60;;;0.37;;
37451;SDS011;23314;51.114;6.900;2023-03-14T06:31:45;0.77;;;0.50;;
37451;SDS011;23314;51.114;6.900;2023-03-14T06:34:10;1.37;;;0.50;;
37451;SDS011;23314;51.114;6.900;2023-03-14T06:36:35;0.67;;;0.30;;
37451;SDS011;23314;51.114;6.900;2023-03-14T06:39:01;0.50;;;0.50;;
37451;SDS011;23314;51.114;6.900;2023-03-14T06:41:26;0.50;;;0.50;;
37451;SDS011;23314;51.114;6.900;2023-03-14T06:43:51;0.97;;;0.50;;
37451;SDS011;23314;51.114;6.900;2023-03-14T06:46:17;0.83;;;0.50;;
37451;SDS011;23314;51.114;6.900;2023-03-14T06:48:42;2.73;;;0.70;;
37451;SDS011;23314;51.114;6.900;2023-03-14T06:51:08;0.30;;;0.30;;
37451;SDS011;23314;51.114;6.900;2023-03-14T06:53:33;0.50;;;0.23;;
37451;SDS011;23314;51.114;6.900;2023-03-14T06:55:58;0.53;;;0.53;;
37451;SDS011;23314;51.114;6.900;2023-03-14T06:58:23;1.50;;;0.40;;
37451;SDS011;23314;51.114;6.900;2023-03-14T07:00:49;0.47;;;0.40;;
37451;SDS011;23314;51.114;6.900;2023-03-14T07:03:14;1.00;;;0.53;;
37451;SDS011;23314;51.114;6.900;2023-03-14T07:05:39;3.83;;;0.67;;
37451;SDS011;23314;51.114;6.900;2023-03-14T07:08:05;0.67;;;0.63;;
37451;SDS011;23314;51.114;6.900;2023-03-14T07:10:31;0.60;;;0.60;;
37451;SDS011;23314;51.114;6.900;2023-03-14T07:12:57;0.47;;;0.40;;
37451;SDS011;23314;51.114;6.900;2023-03-14T07:15:22;1.50;;;0.57;;
37451;SDS011;23314;51.114;6.900;2023-03-14T07:17:47;1.70;;;0.50;;
37451;SDS011;23314;51.114;6.900;2023-03-14T07:20:13;0.93;;;0.60;;
37451;SDS011;23314;51.114;6.900;2023-03-14T07:22:38;0.57;;;0.57;;
37451;SDS011;23314;51.114;6.900;2023-03-14T07:25:04;1.87;;;0.70;;
37451;SDS011;23314;51.114;6.900;2023-03-14T07:27:29;0.53;;;0.50;;
37451;SDS011;23314;51.114;6.900;2023-03-14T07:29:55;0.40;;;0.40;;
37451;SDS011;23314;51.114;6.900;2023-03-14T07:32:20;0.60;;;0.60;;
37451;SDS011;23314;51.114;6.900;2023-03-14T07:34:45;1.57;;;0.50;;
37451;SDS011;23314;51.114;6.900;2023-03-14T07:37:10;1.00;;;0.50;;
37451;SDS011;23314;51.114;6.900;2023-03-14T07:39:36;1.90;;;0.60;;
37451;SDS011;23314;51.114;6.900;2023-03-14T07:42:01;1.13;;;0.90;;
37451;SDS011;23314;51.114;6.900;2023-03-14T07:44:27;0.67;;;0.60;;
37451;SDS011;23314;51.114;6.900;2023-03-14T07:46:52;0.63;;;0.63;;
37451;SDS011;23314;51.114;6.900;2023-03-14T07:49:18;0.70;;;0.70;;
37451;SDS011;23314;51.114;6.900;2023-03-14T07:51:43;0.70;;;0.70;;
37451;SDS011;23314;51.114;6.900;2023-03-14T07:54:11;0.90;;;0.80;;
37451;SDS011;23314;51.114;6.900;2023-03-14T07:56:37;0.70;;;0.70;;
37451;SDS011;23314;51.114;6.900;2023-03-14T07:59:02;0.57;;;0.57;;
37451;SDS011;23314;51.114;6.900;2023-03-14T08:01:28;0.67;;;0.67;;
37451;SDS011;23314;51.114;6.900;2023-03-14T08:03:54;0.60;;;0.60;;
37451;SDS011;23314;51.114;6.900;2023-03-14T08:06:19;2.13;;;0.87;;
37451;SDS011;23314;51.114;6.900;2023-03-14T08:08:45;0.20;;;0.20;;
37451;SDS011;23314;51.114;6.900;2023-03-14T08:11:10;0.50;;;0.50;;
37451;SDS011;23314;51.114;6.900;2023-03-14T08:13:36;0.70;;;0.50;;
37451;SDS011;23314;51.114;6.900;2023-03-14T08:16:04;0.40;;;0.40;;
37451;SDS011;23314;51.114;6.900;2023-03-14T08:18:29;1.17;;;0.53;;
37451;SDS011;23314;51.114;6.900;2023-03-14T08:20:55;0.67;;;0.60;;
37451;SDS011;23314;51.114;6.900;2023-03-14T08:23:20;0.57;;;0.50;;
37451;SDS011;23314;51.114;6.900;2023-03-14T08:25:45;0.67;;;0.67;;
37451;SDS011;23314;51.114;6.900;2023-03-14T08:28:13;1.67;;;0.60;;
37451;SDS011;23314;51.114;6.900;2023-03-14T08:30:38;0.97;;;0.57;;
37451;SDS011;23314;51.114;6.900;2023-03-14T08:33:04;0.57;;;0.40;;
37451;SDS011;23314;51.114;6.900;2023-03-14T08:35:29;0.97;;;0.40;;
37451;SDS011;23314;51.114;6.900;2023-03-14T08:37:54;0.67;;;0.40;;
37451;SDS011;23314;51.114;6.900;2023-03-14T08:40:20;0.97;;;0.50;;
37451;SDS011;23314;51.114;6.900;2023-03-14T08:42:46;0.60;;;0.60;;
37451;SDS011;23314;51.114;6.900;2023-03-14T08:45:12;1.43;;;0.60;;
37451;SDS011;23314;51.114;6.900;2023-03-14T08:47:38;2.80;;;0.67;;
37451;SDS011;23314;51.114;6.900;2023-03-14T08:50:04;1.00;;;0.80;;
37451;SDS011;23314;51.114;6.900;2023-03-14T08:52:30;1.93;;;0.73;;
37451;SDS011;23314;51.114;6.900;2023-03-14T08:54:57;0.90;;;0.90;;
37451;SDS011;23314;51.114;6.900;2023-03-14T08:57:22;0.60;;;0.60;;
37451;SDS011;23314;51.114;6.900;2023-03-14T08:59:52;1.30;;;0.80;;
37451;SDS011;23314;51.114;6.900;2023-03-14T09:02:19;1.90;;;0.90;;
37451;SDS011;23314;51.114;6.900;2023-03-14T09:04:45;0.70;;;0.70;;
37451;SDS011;23314;51.114;6.900;2023-03-14T09:07:10;0.53;;;0.53;;
37451;SDS011;23314;51.114;6.900;2023-03-14T09:09:35;0.73;;;0.60;;
37451;SDS011;23314;51.114;6.900;2023-03-14T09:12:01;0.50;;;0.50;;
37451;SDS011;23314;51.114;6.900;2023-03-14T09:14:26;1.63;;;0.60;;
37451;SDS011;23314;51.114;6.900;2023-03-14T09:16:52;1.47;;;0.60;;
37451;SDS011;23314;51.114;6.900;2023-03-14T09:19:17;1.17;;;0.60;;
37451;SDS011;23314;51.114;6.900;2023-03-14T09:21:42;0.97;;;0.80;;
37451;SDS011;23314;51.114;6.900;2023-03-14T09:24:07;0.60;;;0.60;;
37451;SDS011;23314;51.114;6.900;2023-03-14T09:26:33;1.60;;;0.70;;
37451;SDS011;23314;51.114;6.900;2023-03-14T09:28:58;3.50;;;0.90;;
37451;SDS011;23314;51.114;6.900;2023-03-14T09:31:23;0.50;;;0.50;;
37451;SDS011;23314;51.114;6.900;2023-03-14T09:33:49;1.40;;;0.60;;
37451;SDS011;23314;51.114;6.900;2023-03-14T09:36:14;0.30;;;0.30;;
37451;SDS011;23314;51.114;6.900;2023-03-14T09:38:39;0.40;;;0.40;;
37451;SDS011;23314;51.114;6.900;2023-03-14T09:41:12;0.73;;;0.60;;
37451;SDS011;23314;51.114;6.900;2023-03-14T09:43:40;0.50;;;0.50;;
37451;SDS011;23314;51.114;6.900;2023-03-14T09:46:07;0.47;;;0.47;;
37451;SDS011;23314;51.114;6.900;2023-03-14T09:48:36;0.53;;;0.40;;
37451;SDS011;23314;51.114;6.900;2023-03-14T09:51:02;0.47;;;0.47;;
37451;SDS011;23314;51.114;6.900;2023-03-14T09:53:36;0.83;;;0.60;;
37451;SDS011;23314;51.114;6.900;2023-03-14T09:56:07;1.00;;;0.73;;
37451;SDS011;23314;51.114;6.900;2023-03-14T09:58:36;1.17;;;0.63;;
37451;SDS011;23314;51.114;6.900;2023-03-14T10:01:07;1.07;;;0.77;;
37451;SDS011;23314;51.114;6.900;2023-03-14T10:03:36;1.23;;;1.00;;
37451;SDS011;23314;51.114;6.900;2023-03-14T10:06:01;0.93;;;0.93;;
37451;SDS011;23314;51.114;6.900;2023-03-14T10:08:27;1.47;;;0.97;;
37451;SDS011;23314;51.114;6.900;2023-03-14T10:10:53;3.43;;;1.20;;
37451;SDS011;23314;51.114;6.900;2023-03-14T10:13:21;2.73;;;1.30;;
37451;SDS011;23314;51.114;6.900;2023-03-14T10:15:59;1.10;;;0.97;;
37451;SDS011;23314;51.114;6.900;2023-03-14T10:18:28;1.13;;;0.70;;
37451;SDS011;23314;51.114;6.900;2023-03-14T10:21:05;2.17;;;0.80;;
37451;SDS011;23314;51.114;6.900;2023-03-14T10:23:32;1.67;;;1.13;;
37451;SDS011;23314;51.114;6.900;2023-03-14T10:26:44;1.73;;;0.83;;
37451;SDS011;23314;51.114;6.900;2023-03-14T10:28:52;2.17;;;1.00;;
37451;SDS011;23314;51.114;6.900;2023-03-14T10:31:25;1.80;;;1.03;;
37451;SDS011;23314;51.114;6.900;2023-03-14T10:34:01;1.20;;;1.20;;
37451;SDS011;23314;51.114;6.900;2023-03-14T10:36:32;1.23;;;1.13;;
37451;SDS011;23314;51.114;6.900;2023-03-14T10:41:47;1.40;;;1.30;;
37451;SDS011;23314;51.114;6.900;2023-03-14T10:44:13;1.83;;;1.30;;
37451;SDS011;23314;51.114;6.900;2023-03-14T10:46:43;1.70;;;1.30;;
37451;SDS011;23314;51.114;6.900;2023-03-14T10:49:15;1.60;;;1.47;;
37451;SDS011;23314;51.114;6.900;2023-03-14T10:51:51;2.93;;;1.50;;
37451;SDS011;23314;51.114;6.900;2023-03-14T10:54:20;1.47;;;1.40;;
37451;SDS011;23314;51.114;6.900;2023-03-14T10:56:55;1.90;;;1.80;;
37451;SDS011;23314;51.114;6.900;2023-03-14T10:59:22;2.90;;;2.40;;
37451;SDS011;23314;51.114;6.900;2023-03-14T11:01:50;3.10;;;2.70;;
37451;SDS011;23314;51.114;6.900;2023-03-14T11:08:25;2.90;;;2.60;;
37451;SDS011;23314;51.114;6.900;2023-03-14T11:10:57;3.40;;;3.20;;
37451;SDS011;23314;51.114;6.900;2023-03-14T11:13:47;4.00;;;2.60;;
37451;SDS011;23314;51.114;6.900;2023-03-14T11:22:23;2.33;;;1.47;;
37451;SDS011;23314;51.114;6.900;2023-03-14T11:24:55;2.47;;;2.03;;
37451;SDS011;23314;51.114;6.900;2023-03-14T11:27:42;2.53;;;1.90;;
37451;SDS011;23314;51.114;6.900;2023-03-14T11:30:39;2.43;;;1.53;;
37451;SDS011;23314;51.114;6.900;2023-03-14T11:33:13;4.33;;;1.90;;
37451;SDS011;23314;51.114;6.900;2023-03-14T11:35:43;3.03;;;1.93;;
37451;SDS011;23314;51.114;6.900;2023-03-14T11:41:00;5.50;;;2.47;;
37451;SDS011;23314;51.114;6.900;2023-03-14T11:43:35;3.53;;;2.00;;
37451;SDS011;23314;51.114;6.900;2023-03-14T11:46:25;4.90;;;2.10;;
37451;SDS011;23314;51.114;6.900;2023-03-14T11:49:01;5.83;;;2.07;;
37451;SDS011;23314;51.114;6.900;2023-03-14T11:51:38;7.00;;;3.33;;
37451;SDS011;23314;51.114;6.900;2023-03-14T11:54:11;6.50;;;3.97;;
37451;SDS011;23314;51.114;6.900;2023-03-14T11:56:45;4.50;;;3.83;;
37451;SDS011;23314;51.114;6.900;2023-03-14T11:59:16;4.20;;;2.80;;
37451;SDS011;23314;51.114;6.900;2023-03-14T12:01:57;6.13;;;2.80;;
37451;SDS011;23314;51.114;6.900;2023-03-14T12:07:19;6.10;;;3.87;;
37451;SDS011;23314;51.114;6.900;2023-03-14T12:09:49;3.57;;;3.20;;
37451;SDS011;23314;51.114;6.900;2023-03-14T12:12:20;4.67;;;3.30;;
37451;SDS011;23314;51.114;6.900;2023-03-14T12:14:52;6.57;;;3.63;;
37451;SDS011;23314;51.114;6.900;2023-03-14T12:22:45;5.13;;;2.80;;
37451;SDS011;23314;51.114;6.900;2023-03-14T12:25:25;2.40;;;2.20;;
37451;SDS011;23314;51.114;6.900;2023-03-14T12:35:38;2.90;;;1.90;;
37451;SDS011;23314;51.114;6.900;2023-03-14T12:40:59;3.70;;;1.50;;
37451;SDS011;23314;51.114;6.900;2023-03-14T12:43:31;4.17;;;1.60;;
37451;SDS011;23314;51.114;6.900;2023-03-14T12:46:09;5.77;;;2.00;;
37451;SDS011;23314;51.114;6.900;2023-03-14T12:48:43;7.93;;;2.30;;
37451;SDS011;23314;51.114;6.900;2023-03-14T12:51:13;5.00;;;1.90;;
37451;SDS011;23314;51.114;6.900;2023-03-14T12:56:28;7.57;;;1.93;;
37451;SDS011;23314;51.114;6.900;2023-03-14T12:59:30;4.77;;;1.97;;
37451;SDS011;23314;51.114;6.900;2023-03-14T13:02:01;7.23;;;1.80;;
37451;SDS011;23314;51.114;6.900;2023-03-14T13:04:53;3.87;;;1.33;;
37451;SDS011;23314;51.114;6.900;2023-03-14T13:10:22;6.97;;;1.83;;
37451;SDS011;23314;51.114;6.900;2023-03-14T13:15:43;6.13;;;1.90;;
37451;SDS011;23314;51.114;6.900;2023-03-14T13:18:58;5.40;;;1.87;;
37451;SDS011;23314;51.114;6.900;2023-03-14T13:21:16;5.43;;;1.30;;
37451;SDS011;23314;51.114;6.900;2023-03-14T13:26:32;3.17;;;0.80;;
37451;SDS011;23314;51.114;6.900;2023-03-14T13:29:14;2.83;;;0.93;;
37451;SDS011;23314;51.114;6.900;2023-03-14T13:31:45;5.80;;;1.10;;
37451;SDS011;23314;51.114;6.900;2023-03-14T13:34:11;10.60;;;2.13;;
37451;SDS011;23314;51.114;6.900;2023-03-14T13:36:37;8.30;;;2.20;;
37451;SDS011;23314;51.114;6.900;2023-03-14T13:39:03;11.67;;;2.70;;
37451;SDS011;23314;51.114;6.900;2023-03-14T13:41:37;10.57;;;2.53;;
37451;SDS011;23314;51.114;6.900;2023-03-14T13:44:05;8.03;;;2.47;;
37451;SDS011;23314;51.114;6.900;2023-03-14T13:46:33;12.27;;;3.00;;
37451;SDS011;23314;51.114;6.900;2023-03-14T13:49:03;10.57;;;3.13;;
37451;SDS011;23314;51.114;6.900;2023-03-14T13:51:31;15.73;;;3.57;;
37451;SDS011;23314;51.114;6.900;2023-03-14T13:54:00;12.83;;;3.20;;
37451;SDS011;23314;51.114;6.900;2023-03-14T13:56:30;10.73;;;3.30;;
37451;SDS011;23314;51.114;6.900;2023-03-14T13:58:56;17.10;;;3.43;;
37451;SDS011;23314;51.114;6.900;2023-03-14T14:01:24;17.83;;;3.47;;
37451;SDS011;23314;51.114;6.900;2023-03-14T14:03:51;17.03;;;4.00;;
37451;SDS011;23314;51.114;6.900;2023-03-14T14:06:22;10.70;;;3.30;;
37451;SDS011;23314;51.114;6.900;2023-03-14T14:08:52;10.17;;;2.73;;
37451;SDS011;23314;51.114;6.900;2023-03-14T14:11:32;19.37;;;3.30;;
37451;SDS011;23314;51.114;6.900;2023-03-14T14:14:04;12.53;;;2.90;;
37451;SDS011;23314;51.114;6.900;2023-03-14T14:16:33;17.20;;;3.70;;
37451;SDS011;23314;51.114;6.900;2023-03-14T14:18:58;17.03;;;2.87;;
37451;SDS011;23314;51.114;6.900;2023-03-14T14:21:25;13.10;;;3.00;;
37451;SDS011;23314;51.114;6.900;2023-03-14T14:23:51;15.17;;;3.63;;
37451;SDS011;23314;51.114;6.900;2023-03-14T14:26:17;20.27;;;3.70;;
37451;SDS011;23314;51.114;6.900;2023-03-14T14:28:44;13.87;;;3.13;;
37451;SDS011;23314;51.114;6.900;2023-03-14T14:33:42;20.97;;;3.80;;
37451;SDS011;23314;51.114;6.900;2023-03-14T14:36:20;15.30;;;3.53;;
37451;SDS011;23314;51.114;6.900;2023-03-14T14:38:58;20.63;;;3.80;;
37451;SDS011;23314;51.114;6.900;2023-03-14T14:41:29;21.13;;;3.60;;
37451;SDS011;23314;51.114;6.900;2023-03-14T14:43:55;13.83;;;3.47;;
37451;SDS011;23314;51.114;6.900;2023-03-14T14:46:21;13.60;;;3.70;;
37451;SDS011;23314;51.114;6.900;2023-03-14T14:48:47;17.87;;;4.50;;
37451;SDS011;23314;51.114;6.900;2023-03-14T14:51:22;14.03;;;3.57;;
37451;SDS011;23314;51.114;6.900;2023-03-14T14:53:59;15.80;;;4.07;;
37451;SDS011;23314;51.114;6.900;2023-03-14T14:56:27;15.20;;;3.90;;
37451;SDS011;23314;51.114;6.900;2023-03-14T14:59:00;17.33;;;3.43;;
37451;SDS011;23314;51.114;6.900;2023-03-14T15:01:37;12.57;;;3.20;;
37451;SDS011;23314;51.114;6.900;2023-03-14T15:04:09;23.57;;;5.30;;
37451;SDS011;23314;51.114;6.900;2023-03-14T15:06:38;15.07;;;4.80;;
37451;SDS011;23314;51.114;6.900;2023-03-14T15:09:04;14.20;;;3.67;;
37451;SDS011;23314;51.114;6.900;2023-03-14T15:11:31;14.07;;;3.70;;
37451;SDS011;23314;51.114;6.900;2023-03-14T15:13:56;15.17;;;3.13;;
37451;SDS011;23314;51.114;6.900;2023-03-14T15:16:23;12.10;;;3.30;;
37451;SDS011;23314;51.114;6.900;2023-03-14T15:18:53;14.87;;;3.03;;
37451;SDS011;23314;51.114;6.900;2023-03-14T15:21:20;15.80;;;3.00;;
37451;SDS011;23314;51.114;6.900;2023-03-14T15:23:46;11.80;;;2.37;;
37451;SDS011;23314;51.114;6.900;2023-03-14T15:26:13;10.50;;;3.00;;
37451;SDS011;23314;51.114;6.900;2023-03-14T15:28:40;7.77;;;2.20;;
37451;SDS011;23314;51.114;6.900;2023-03-14T15:31:08;14.40;;;2.93;;
37451;SDS011;23314;51.114;6.900;2023-03-14T15:33:35;8.70;;;2.23;;
37451;SDS011;23314;51.114;6.900;2023-03-14T15:36:01;10.07;;;2.40;;
37451;SDS011;23314;51.114;6.900;2023-03-14T15:38:27;8.27;;;2.40;;
37451;SDS011;23314;51.114;6.900;2023-03-14T15:40:52;9.90;;;2.40;;
37451;SDS011;23314;51.114;6.900;2023-03-14T15:43:18;8.43;;;2.13;;
37451;SDS011;23314;51.114;6.900;2023-03-14T15:45:44;8.57;;;2.40;;
37451;SDS011;23314;51.114;6.900;2023-03-14T15:48:14;6.87;;;1.80;;
37451;SDS011;23314;51.114;6.900;2023-03-14T15:50:41;11.20;;;1.90;;
37451;SDS011;23314;51.114;6.900;2023-03-14T15:53:06;8.03;;;2.37;;
37451;SDS011;23314;51.114;6.900;2023-03-14T15:55:32;12.57;;;2.43;;